Time;durP1;ratioP1;P1;durP2;ratioP2;P2;SDS_P1;SDS_P2;PMS_P1;PMS_P2;Temp;Humidity;BMP_temperature;BMP_pressure;BME280_temperature;BME280_humidity;BME280_pressure;Samples;Min_cycle;Max_cycle;Signal;HPM_P1;HPM_P2
2021/12/11 00:01:57;;;;;;;34.50;21.00;;;;;2.90;100096.00;;;;10457881;28;20200;-77
2021/12/11 00:07:02;;;;;;;36.73;21.73;;;;;2.90;100103.00;;;;10482167;28;20201;-78
2021/12/11 00:12:34;;;;;;;32.27;21.03;;;;;3.00;100109.00;;;;10468900;28;20482;-79
2021/12/11 00:17:36;;;;;;;32.57;21.63;;;;;3.00;100120.00;;;;10517343;28;20205;-79
2021/12/11 00:22:41;;;;;;;36.97;21.73;;;;;3.10;100124.00;;;;10517463;28;20200;-78
2021/12/11 00:27:47;;;;;;;36.00;21.93;;;;;3.10;100137.00;;;;10514915;28;20180;-79
2021/12/11 00:32:59;;;;;;;39.20;23.70;;;;;3.10;100148.00;;;;10528361;28;20208;-79
2021/12/11 00:38:10;;;;;;;33.00;21.33;;;;;3.20;100162.00;;;;10532028;28;20205;-79
2021/12/11 00:43:17;;;;;;;33.53;21.17;;;;;3.20;100170.00;;;;10480306;28;20217;-79
2021/12/11 00:48:22;;;;;;;33.53;20.97;;;;;3.20;100179.00;;;;10478840;28;20178;-78
2021/12/11 00:53:40;;;;;;;34.53;21.00;;;;;3.30;100181.00;;;;10512226;28;20702;-78
2021/12/11 00:58:43;;;;;;;33.83;21.00;;;;;3.30;100202.00;;;;10479664;28;20209;-79
2021/12/11 01:03:58;;;;;;;31.93;20.60;;;;;3.40;100210.00;;;;10478319;28;20201;-78
2021/12/11 01:09:09;;;;;;;34.83;23.37;;;;;3.40;100205.00;;;;10477643;28;20300;-79
2021/12/11 01:14:33;;;;;;;38.77;22.93;;;;;3.40;100219.00;;;;10477588;28;20194;-79
2021/12/11 01:19:39;;;;;;;41.67;24.20;;;;;3.40;100221.00;;;;10478574;28;20200;-78
2021/12/11 01:24:46;;;;;;;41.10;24.20;;;;;3.40;100218.00;;;;10494214;28;20190;-78
2021/12/11 01:29:56;;;;;;;37.30;23.40;;;;;3.50;100236.00;;;;10493850;28;20259;-79
2021/12/11 01:35:00;;;;;;;39.20;22.63;;;;;3.50;100249.00;;;;10478217;28;20308;-78
2021/12/11 01:40:07;;;;;;;35.70;20.77;;;;;3.50;100254.00;;;;10465949;28;20761;-79
2021/12/11 01:45:15;;;;;;;33.80;20.23;;;;;3.50;100266.00;;;;10483377;28;20189;-79
2021/12/11 01:50:29;;;;;;;36.50;22.20;;;;;3.60;100266.00;;;;10482514;28;20265;-79
2021/12/11 01:55:49;;;;;;;33.00;20.70;;;;;3.70;100268.00;;;;10501525;28;20197;-78
2021/12/11 02:01:09;;;;;;;41.27;22.87;;;;;3.70;100273.00;;;;10467487;28;20276;-78
2021/12/11 02:06:12;;;;;;;38.27;22.00;;;;;3.80;100277.00;;;;10482415;28;20264;-78
2021/12/11 02:11:19;;;;;;;37.33;21.90;;;;;3.80;100296.00;;;;10478686;28;20201;-78
2021/12/11 02:16:24;;;;;;;38.67;23.03;;;;;3.80;100298.00;;;;10460756;28;20209;-78
2021/12/11 02:21:30;;;;;;;40.50;23.90;;;;;3.90;100311.00;;;;10498462;28;20207;-78
2021/12/11 02:26:35;;;;;;;36.43;20.50;;;;;3.90;100313.00;;;;10501941;28;20196;-78
2021/12/11 02:32:00;;;;;;;37.37;19.87;;;;;4.00;100315.00;;;;10516758;28;20201;-78
2021/12/11 02:37:29;;;;;;;29.60;14.57;;;;;4.10;100323.00;;;;10484300;28;20204;-78
2021/12/11 02:42:39;;;;;;;27.93;12.03;;;;;4.30;100323.00;;;;10496915;28;20246;-78
2021/12/11 02:47:56;;;;;;;21.80;10.03;;;;;4.40;100338.00;;;;10480457;28;20215;-78
2021/12/11 02:53:16;;;;;;;13.83;6.90;;;;;4.50;100347.00;;;;10512157;28;20196;-78
2021/12/11 02:58:27;;;;;;;17.27;5.00;;;;;4.70;100346.00;;;;10495237;28;20232;-78
2021/12/11 03:03:34;;;;;;;15.97;3.70;;;;;4.80;100352.00;;;;10475178;28;20667;-78
2021/12/11 03:08:37;;;;;;;11.17;2.93;;;;;5.00;100368.00;;;;10503796;28;20226;-78
2021/12/11 03:13:44;;;;;;;14.90;3.37;;;;;5.10;100374.00;;;;10532934;28;20189;-77
2021/12/11 03:18:47;;;;;;;12.60;2.50;;;;;5.10;100382.00;;;;10549253;28;20208;-77
2021/12/11 03:23:50;;;;;;;10.57;2.80;;;;;5.10;100395.00;;;;10515882;28;20200;-77
2021/12/11 03:28:53;;;;;;;11.27;2.10;;;;;5.20;100408.00;;;;10532320;28;20225;-78
2021/12/11 03:33:58;;;;;;;21.83;2.90;;;;;5.20;100422.00;;;;10532072;28;20212;-78
2021/12/11 03:39:10;;;;;;;10.93;2.13;;;;;5.30;100443.00;;;;10532334;28;20204;-77
2021/12/11 03:44:14;;;;;;;16.97;3.20;;;;;5.30;100453.00;;;;10533171;28;20176;-77
2021/12/11 03:49:19;;;;;;;15.67;2.40;;;;;5.30;100464.00;;;;10534915;28;20185;-77
2021/12/11 03:54:25;;;;;;;16.67;3.47;;;;;5.30;100470.00;;;;10540354;28;20702;-78
2021/12/11 03:59:30;;;;;;;11.87;2.53;;;;;5.30;100481.00;;;;10540112;28;20221;-77
2021/12/11 04:04:40;;;;;;;14.10;3.27;;;;;5.20;100496.00;;;;10523209;28;20210;-78
2021/12/11 04:09:43;;;;;;;17.50;2.53;;;;;5.20;100498.00;;;;10518366;28;20204;-77
2021/12/11 04:14:48;;;;;;;17.70;3.20;;;;;5.20;100495.00;;;;10531049;28;20231;-77
2021/12/11 04:19:55;;;;;;;13.77;3.47;;;;;5.20;100510.00;;;;10498442;28;20636;-77
2021/12/11 04:24:57;;;;;;;13.80;2.93;;;;;5.20;100516.00;;;;10501588;28;20189;-79
2021/12/11 04:30:03;;;;;;;24.73;3.63;;;;;5.30;100510.00;;;;10505178;28;20193;-78
2021/12/11 04:35:08;;;;;;;16.90;3.53;;;;;5.20;100530.00;;;;10504440;28;20217;-79
2021/12/11 04:40:16;;;;;;;18.07;2.97;;;;;5.20;100535.00;;;;10478992;28;20201;-79
2021/12/11 04:45:35;;;;;;;16.37;3.07;;;;;5.20;100537.00;;;;10480110;28;20186;-79
2021/12/11 04:50:48;;;;;;;8.07;2.93;;;;;5.20;100541.00;;;;10491569;28;20200;-78
2021/12/11 05:01:44;;;;;;;17.50;2.93;;;;;5.30;100564.00;;;;10429949;28;20238;-78
2021/12/11 05:07:01;;;;;;;16.00;3.30;;;;;5.30;100571.00;;;;10498565;28;20594;-78
2021/12/11 05:12:28;;;;;;;25.27;4.03;;;;;5.20;100593.00;;;;10457510;28;20203;-78
2021/12/11 05:17:30;;;;;;;17.93;4.37;;;;;5.00;100602.00;;;;10439560;28;20197;-78
2021/12/11 05:22:33;;;;;;;18.83;4.60;;;;;5.00;100607.00;;;;10455526;28;20225;-78
2021/12/11 05:27:36;;;;;;;24.37;4.73;;;;;5.00;100618.00;;;;10453364;28;20212;-78
2021/12/11 05:32:38;;;;;;;21.63;5.07;;;;;5.00;100634.00;;;;10456052;28;20209;-78
2021/12/11 05:37:41;;;;;;;20.43;4.57;;;;;4.90;100648.00;;;;10494859;28;20213;-78
2021/12/11 05:42:43;;;;;;;25.20;4.67;;;;;4.90;100651.00;;;;10494596;28;20197;-78
2021/12/11 05:47:46;;;;;;;19.57;4.57;;;;;4.90;100655.00;;;;10494112;28;20230;-78
2021/12/11 05:52:48;;;;;;;31.57;6.33;;;;;4.90;100671.00;;;;10493635;28;20200;-78
2021/12/11 05:57:56;;;;;;;26.67;7.53;;;;;4.90;100667.00;;;;10493883;28;20266;-78
2021/12/11 06:02:59;;;;;;;21.03;6.23;;;;;4.90;100685.00;;;;10509772;28;20204;-78
2021/12/11 06:08:03;;;;;;;35.50;7.97;;;;;4.90;100686.00;;;;10502486;28;20215;-78
2021/12/11 06:13:05;;;;;;;34.53;12.23;;;;;4.80;100699.00;;;;10450643;28;20250;-78
2021/12/11 06:18:13;;;;;;;28.13;7.60;;;;;4.80;100705.00;;;;10451361;28;20206;-77
2021/12/11 06:23:17;;;;;;;27.80;6.50;;;;;4.70;100717.00;;;;10434071;28;20224;-78
2021/12/11 06:28:19;;;;;;;30.17;6.83;;;;;4.60;100737.00;;;;10434730;28;20557;-77
2021/12/11 06:33:22;;;;;;;24.03;6.97;;;;;4.60;100742.00;;;;10450549;28;20782;-78
2021/12/11 06:38:27;;;;;;;25.13;6.90;;;;;4.50;100753.00;;;;10450665;28;20205;-78
2021/12/11 06:43:29;;;;;;;21.43;9.90;;;;;4.30;100772.00;;;;10449711;28;20724;-77
2021/12/11 06:48:32;;;;;;;19.10;6.10;;;;;4.20;100783.00;;;;10434102;28;20216;-77
2021/12/11 06:53:39;;;;;;;20.80;6.27;;;;;4.20;100791.00;;;;10433743;28;20611;-78
2021/12/11 06:58:41;;;;;;;23.33;6.17;;;;;4.00;100798.00;;;;10449708;28;20630;-77
2021/12/11 07:03:44;;;;;;;32.80;7.07;;;;;3.90;100818.00;;;;10478043;28;20196;-78
2021/12/11 07:08:49;;;;;;;20.83;6.37;;;;;3.80;100838.00;;;;10491120;28;20207;-77
2021/12/11 07:13:51;;;;;;;33.00;8.73;;;;;3.70;100847.00;;;;10507396;28;20197;-78
2021/12/11 07:18:53;;;;;;;30.50;9.47;;;;;3.70;100847.00;;;;10490692;28;20219;-77
2021/12/11 07:23:55;;;;;;;22.27;6.47;;;;;3.60;100858.00;;;;10490608;28;20246;-77
2021/12/11 07:29:02;;;;;;;24.97;6.57;;;;;3.60;100866.00;;;;10490333;28;20192;-77
2021/12/11 07:34:04;;;;;;;35.67;15.10;;;;;3.60;100886.00;;;;10490244;28;20213;-77
2021/12/11 07:39:09;;;;;;;27.67;11.67;;;;;3.50;100889.00;;;;10484945;28;20242;-77
2021/12/11 07:44:11;;;;;;;32.03;11.87;;;;;3.50;100896.00;;;;10506761;28;20189;-77
2021/12/11 07:49:14;;;;;;;18.93;8.90;;;;;3.50;100904.00;;;;10473811;28;20297;-77
2021/12/11 07:54:16;;;;;;;20.63;9.47;;;;;3.50;100922.00;;;;10490210;28;20197;-77
2021/12/11 07:59:18;;;;;;;18.77;7.60;;;;;3.50;100933.00;;;;10473371;28;20208;-77
2021/12/11 08:04:22;;;;;;;26.20;7.40;;;;;3.50;100943.00;;;;10503911;28;20246;-78
2021/12/11 08:09:24;;;;;;;25.80;7.20;;;;;3.50;100956.00;;;;10497579;28;20189;-77
2021/12/11 08:14:26;;;;;;;31.90;8.00;;;;;3.50;100969.00;;;;10513892;28;20242;-77
2021/12/11 08:19:28;;;;;;;31.00;14.53;;;;;3.60;100965.00;;;;10522692;28;20213;-77
2021/12/11 08:24:31;;;;;;;28.03;11.80;;;;;3.60;100985.00;;;;10502783;28;20189;-78
2021/12/11 08:29:33;;;;;;;28.03;11.03;;;;;3.70;100996.00;;;;10530461;28;20230;-77
2021/12/11 08:34:35;;;;;;;45.30;25.33;;;;;3.80;101003.00;;;;10505517;28;20205;-77
2021/12/11 08:39:39;;;;;;;29.53;13.50;;;;;3.90;101009.00;;;;10477279;28;20259;-77
2021/12/11 08:44:50;;;;;;;28.43;13.23;;;;;4.10;101018.00;;;;10470317;28;20197;-78
2021/12/11 08:49:54;;;;;;;33.47;11.20;;;;;4.30;101030.00;;;;10496080;28;20193;-77
2021/12/11 08:54:57;;;;;;;33.97;16.60;;;;;4.50;101050.00;;;;10454945;28;20275;-77
2021/12/11 09:00:09;;;;;;;34.27;14.70;;;;;4.80;101091.00;;;;10495720;28;20201;-78
2021/12/11 09:05:21;;;;;;;31.53;12.43;;;;;5.10;101104.00;;;;10509950;28;20258;-77
2021/12/11 09:10:34;;;;;;;31.43;9.53;;;;;5.30;101117.00;;;;10467508;28;20255;-77
2021/12/11 09:15:48;;;;;;;24.10;12.70;;;;;5.60;101105.00;;;;10527019;28;20209;-78
2021/12/11 09:21:05;;;;;;;31.20;11.20;;;;;5.90;101119.00;;;;10479281;28;20680;-77
2021/12/11 09:26:28;;;;;;;29.60;9.77;;;;;6.10;101124.00;;;;10453185;28;20193;-77
2021/12/11 09:31:36;;;;;;;25.80;8.10;;;;;6.40;101127.00;;;;10497281;28;20192;-77
2021/12/11 09:36:43;;;;;;;34.13;8.23;;;;;6.50;101130.00;;;;10510530;28;20209;-77
2021/12/11 09:41:45;;;;;;;25.30;7.43;;;;;6.80;101137.00;;;;10510725;28;20227;-77
2021/12/11 09:46:55;;;;;;;25.60;7.90;;;;;6.90;101148.00;;;;10508987;28;20189;-77
2021/12/11 09:52:13;;;;;;;25.37;8.83;;;;;7.10;101172.00;;;;10485301;28;20201;-77
2021/12/11 09:57:20;;;;;;;23.73;8.40;;;;;7.60;101174.00;;;;10480355;28;20208;-78
2021/12/11 10:02:29;;;;;;;37.43;9.97;;;;;7.70;101182.00;;;;10503327;28;20205;-78
2021/12/11 10:07:37;;;;;;;22.63;9.33;;;;;7.90;101194.00;;;;10477047;28;20219;-77
2021/12/11 10:12:44;;;;;;;24.47;8.93;;;;;7.70;101190.00;;;;10476545;28;20253;-77
2021/12/11 10:18:14;;;;;;;21.20;7.27;;;;;7.50;101200.00;;;;10509007;28;20230;-77
2021/12/11 10:23:20;;;;;;;15.90;6.30;;;;;7.70;101197.00;;;;10491709;28;20254;-78
2021/12/11 10:28:24;;;;;;;16.97;6.70;;;;;7.70;101209.00;;;;10508401;28;20238;-77
2021/12/11 10:33:28;;;;;;;32.30;11.27;;;;;8.00;101212.00;;;;10508073;28;20224;-77
2021/12/11 10:38:30;;;;;;;19.73;7.73;;;;;8.20;101212.00;;;;10543035;28;20197;-77
2021/12/11 10:44:03;;;;;;;23.87;8.63;;;;;8.40;101218.00;;;;10503816;28;20879;-78
2021/12/11 10:49:07;;;;;;;14.63;6.50;;;;;8.60;101204.00;;;;10450061;28;20196;-78
2021/12/11 10:54:10;;;;;;;13.87;5.87;;;;;8.80;101212.00;;;;10466995;28;20216;-78
2021/12/11 10:59:23;;;;;;;12.00;4.80;;;;;8.80;101226.00;;;;10470358;28;20206;-77
2021/12/11 11:04:30;;;;;;;15.87;5.87;;;;;9.00;101227.00;;;;10428143;28;20206;-78
2021/12/11 11:09:32;;;;;;;12.77;5.30;;;;;9.00;101227.00;;;;10465795;28;20193;-78
2021/12/11 11:14:34;;;;;;;17.00;6.20;;;;;9.10;101231.00;;;;10465252;28;20197;-78
2021/12/11 11:19:38;;;;;;;12.60;4.73;;;;;9.20;101240.00;;;;10448131;28;20217;-78
2021/12/11 11:24:49;;;;;;;19.33;5.13;;;;;9.10;101245.00;;;;10480974;28;20201;-78
2021/12/11 11:29:51;;;;;;;12.37;3.57;;;;;9.10;101240.00;;;;10439336;28;20179;-78
2021/12/11 11:34:53;;;;;;;10.07;4.17;;;;;9.10;101244.00;;;;10424296;28;20205;-78
2021/12/11 11:39:55;;;;;;;12.00;4.30;;;;;8.80;101232.00;;;;10474528;28;20228;-78
2021/12/11 11:44:57;;;;;;;11.03;4.00;;;;;9.00;101231.00;;;;10446240;28;20224;-78
2021/12/11 11:49:59;;;;;;;13.33;3.53;;;;;9.20;101234.00;;;;10458608;28;20251;-79
2021/12/11 11:55:10;;;;;;;17.33;3.77;;;;;9.10;101223.00;;;;10481086;28;20286;-77
2021/12/11 12:00:19;;;;;;;15.27;4.07;;;;;9.00;101224.00;;;;10406233;28;20202;-78
2021/12/11 12:05:21;;;;;;;19.27;5.80;;;;;8.60;101234.00;;;;10470831;28;20200;-78
2021/12/11 12:10:26;;;;;;;16.13;4.30;;;;;8.10;101229.00;;;;10499777;28;20193;-78
2021/12/11 12:15:32;;;;;;;11.60;3.70;;;;;8.30;101239.00;;;;10541304;28;20197;-78
2021/12/11 12:20:35;;;;;;;21.93;7.47;;;;;8.50;101235.00;;;;10504986;28;20209;-77
2021/12/11 12:25:40;;;;;;;23.83;10.43;;;;;8.90;101231.00;;;;10512386;28;20668;-77
2021/12/11 12:30:50;;;;;;;15.90;6.83;;;;;9.00;101237.00;;;;10512182;28;20197;-77
2021/12/11 12:35:51;;;;;;;17.83;7.50;;;;;9.20;101248.00;;;;10489457;28;20204;-77
2021/12/11 12:41:04;;;;;;;13.90;5.70;;;;;9.10;101249.00;;;;10480194;28;20605;-77
2021/12/11 12:46:06;;;;;;;21.17;6.67;;;;;8.70;101248.00;;;;10503293;28;20185;-77
2021/12/11 12:51:11;;;;;;;19.37;8.70;;;;;8.40;101257.00;;;;10486338;28;20206;-77
2021/12/11 12:56:26;;;;;;;20.10;9.83;;;;;8.50;101251.00;;;;10452581;28;20276;-77
2021/12/11 13:01:38;;;;;;;17.20;6.40;;;;;8.50;101257.00;;;;10469585;28;20204;-77
2021/12/11 13:06:49;;;;;;;19.27;9.60;;;;;8.10;101266.00;;;;10486996;28;20190;-77
2021/12/11 13:11:58;;;;;;;17.97;6.77;;;;;8.30;101272.00;;;;10520413;28;20228;-77
2021/12/11 13:17:08;;;;;;;15.93;8.00;;;;;8.40;101279.00;;;;10526689;28;20205;-77
2021/12/11 13:22:17;;;;;;;18.90;5.87;;;;;8.30;101282.00;;;;10492972;28;20197;-78
2021/12/11 13:27:22;;;;;;;18.77;6.63;;;;;8.20;101285.00;;;;10526814;28;20185;-79
2021/12/11 13:32:27;;;;;;;19.40;6.30;;;;;7.90;101280.00;;;;10492075;28;20217;-78
2021/12/11 13:37:30;;;;;;;22.57;6.53;;;;;7.40;101284.00;;;;10488284;28;20561;-78
2021/12/11 13:42:33;;;;;;;18.97;6.33;;;;;7.20;101276.00;;;;10508350;28;20193;-78
2021/12/11 13:47:37;;;;;;;18.30;8.13;;;;;7.30;101281.00;;;;10508774;28;20193;-79
2021/12/11 13:52:39;;;;;;;21.70;9.33;;;;;7.30;101281.00;;;;10492162;28;20197;-79
2021/12/11 13:57:42;;;;;;;29.03;13.27;;;;;7.30;101281.00;;;;10502064;28;20202;-78
2021/12/11 14:02:45;;;;;;;23.93;9.47;;;;;7.10;101276.00;;;;10491353;28;20737;-78
2021/12/11 14:07:48;;;;;;;15.60;6.07;;;;;6.80;101270.00;;;;10482850;28;20194;-78
2021/12/11 14:12:50;;;;;;;24.60;7.37;;;;;6.70;101280.00;;;;10489300;28;20201;-79
2021/12/11 14:17:52;;;;;;;14.23;5.70;;;;;6.60;101298.00;;;;10457341;28;20260;-79
2021/12/11 14:22:55;;;;;;;14.70;5.97;;;;;6.60;101304.00;;;;10474322;28;20200;-79
2021/12/11 14:27:57;;;;;;;13.73;5.60;;;;;6.60;101311.00;;;;10482667;28;20189;-78
2021/12/11 14:32:59;;;;;;;16.90;6.47;;;;;6.50;101306.00;;;;10488810;28;20243;-79
2021/12/11 14:38:06;;;;;;;19.80;6.47;;;;;6.50;101300.00;;;;10480290;28;20334;-78
2021/12/11 14:43:09;;;;;;;21.07;7.33;;;;;6.50;101315.00;;;;10547912;28;20196;-78
2021/12/11 14:48:12;;;;;;;23.40;8.03;;;;;6.50;101312.00;;;;10531545;28;20605;-79
2021/12/11 14:53:19;;;;;;;21.20;7.50;;;;;6.40;101336.00;;;;10519250;28;20196;-78
2021/12/11 14:58:22;;;;;;;14.23;7.53;;;;;6.20;101339.00;;;;10464167;28;20214;-79
2021/12/11 15:03:25;;;;;;;19.80;7.43;;;;;6.00;101332.00;;;;10463730;28;20197;-78
2021/12/11 15:08:28;;;;;;;19.27;7.40;;;;;5.80;101351.00;;;;10488107;28;20189;-78
2021/12/11 15:13:30;;;;;;;19.20;7.90;;;;;5.60;101366.00;;;;10488698;28;20238;-79
2021/12/11 15:18:33;;;;;;;20.80;8.03;;;;;5.50;101381.00;;;;10504230;28;20254;-79
2021/12/11 15:23:38;;;;;;;26.20;10.13;;;;;5.30;101373.00;;;;10479904;28;20189;-78
2021/12/11 15:28:41;;;;;;;31.13;10.87;;;;;5.20;101381.00;;;;10455760;28;20205;-79
2021/12/11 15:33:47;;;;;;;23.30;9.63;;;;;5.10;101392.00;;;;10513433;28;20216;-79
2021/12/11 15:38:53;;;;;;;19.77;8.87;;;;;5.00;101407.00;;;;10547085;28;20207;-78
2021/12/11 15:43:56;;;;;;;25.10;10.07;;;;;4.80;101405.00;;;;10490647;28;20189;-79
2021/12/11 15:48:58;;;;;;;25.50;10.43;;;;;4.70;101416.00;;;;10471994;28;20189;-78
2021/12/11 15:54:02;;;;;;;19.77;9.63;;;;;4.60;101407.00;;;;10471567;28;20242;-78
2021/12/11 15:59:05;;;;;;;27.23;10.73;;;;;4.50;101417.00;;;;10438525;28;20304;-78
2021/12/11 16:04:11;;;;;;;27.17;10.97;;;;;4.40;101412.00;;;;10455262;28;20213;-78
2021/12/11 16:09:17;;;;;;;32.20;10.97;;;;;4.30;101414.00;;;;10490125;28;20541;-78
2021/12/11 16:14:22;;;;;;;25.17;9.83;;;;;4.30;101413.00;;;;10521660;28;20241;-78
2021/12/11 16:19:28;;;;;;;27.23;9.93;;;;;4.20;101427.00;;;;10513365;28;20729;-78
2021/12/11 16:24:35;;;;;;;26.93;10.03;;;;;4.20;101424.00;;;;10530172;28;20659;-79
2021/12/11 16:29:38;;;;;;;33.57;14.47;;;;;4.10;101432.00;;;;10512736;28;20858;-78
2021/12/11 16:34:41;;;;;;;25.27;10.87;;;;;4.10;101419.00;;;;10479309;28;20209;-78
2021/12/11 16:39:45;;;;;;;25.97;10.40;;;;;4.10;101428.00;;;;10534402;28;20204;-78
2021/12/11 16:44:47;;;;;;;23.20;9.20;;;;;4.00;101432.00;;;;10554196;28;20200;-78
2021/12/11 16:49:48;;;;;;;32.00;10.47;;;;;4.10;101455.00;;;;10537465;28;20184;-78
2021/12/11 16:54:50;;;;;;;26.13;9.83;;;;;4.10;101445.00;;;;10505013;28;20247;-78
2021/12/11 16:59:53;;;;;;;28.77;10.20;;;;;4.10;101447.00;;;;10527642;28;20660;-78
2021/12/11 17:04:55;;;;;;;24.20;10.30;;;;;4.20;101468.00;;;;10477954;28;20200;-78
2021/12/11 17:09:56;;;;;;;25.97;10.60;;;;;4.10;101468.00;;;;10478150;28;20193;-78
2021/12/11 17:15:02;;;;;;;24.40;10.83;;;;;4.00;101470.00;;;;10486551;28;20193;-78
2021/12/11 17:20:07;;;;;;;29.13;11.23;;;;;3.90;101481.00;;;;10527034;28;20254;-78
2021/12/11 17:25:22;;;;;;;29.73;11.83;;;;;3.80;101497.00;;;;10472565;28;20239;-78
2021/12/11 17:30:25;;;;;;;24.90;11.17;;;;;3.80;101497.00;;;;10479459;28;20189;-78
2021/12/11 17:35:28;;;;;;;32.67;11.53;;;;;3.70;101497.00;;;;10476377;28;20221;-78
2021/12/11 17:40:30;;;;;;;32.97;11.60;;;;;3.70;101504.00;;;;10517541;28;20209;-79
2021/12/11 17:45:35;;;;;;;29.47;10.63;;;;;3.60;101511.00;;;;10491495;28;20188;-79
2021/12/11 17:50:47;;;;;;;34.57;12.00;;;;;3.60;101516.00;;;;10492890;28;20238;-79
2021/12/11 17:55:52;;;;;;;26.27;11.60;;;;;3.60;101521.00;;;;10467718;28;20660;-79
2021/12/11 18:01:08;;;;;;;32.00;10.90;;;;;3.50;101522.00;;;;10466150;28;20266;-79
2021/12/11 18:06:13;;;;;;;32.73;11.10;;;;;3.60;101531.00;;;;10461073;28;20196;-79
2021/12/11 18:11:39;;;;;;;26.87;11.53;;;;;3.70;101529.00;;;;10491128;28;20194;-80
2021/12/11 18:16:49;;;;;;;24.07;11.33;;;;;3.80;101545.00;;;;10487183;28;20193;-79
2021/12/11 18:21:56;;;;;;;29.10;12.73;;;;;3.90;101535.00;;;;10482764;28;20192;-79
2021/12/11 18:27:02;;;;;;;32.10;10.87;;;;;3.90;101530.00;;;;10506745;28;20191;-78
2021/12/11 18:32:11;;;;;;;38.50;12.07;;;;;3.90;101535.00;;;;10483997;28;20209;-79
2021/12/11 18:37:17;;;;;;;22.63;10.53;;;;;3.90;101548.00;;;;10481898;28;20225;-79
2021/12/11 18:42:27;;;;;;;25.23;11.67;;;;;4.00;101550.00;;;;10453583;28;20197;-79
2021/12/11 18:47:29;;;;;;;29.47;11.00;;;;;4.10;101551.00;;;;10489006;28;20193;-79
2021/12/11 18:52:36;;;;;;;34.90;11.63;;;;;4.20;101542.00;;;;10490733;28;20208;-79
2021/12/11 18:57:42;;;;;;;24.07;11.03;;;;;4.20;101566.00;;;;10456888;28;20718;-79
2021/12/11 19:02:46;;;;;;;28.33;12.37;;;;;4.20;101563.00;;;;10483729;28;20197;-78
2021/12/11 19:07:48;;;;;;;26.17;9.43;;;;;4.10;101562.00;;;;10481321;28;20224;-78
2021/12/11 19:12:51;;;;;;;18.20;9.23;;;;;4.10;101563.00;;;;10506031;28;20192;-80
2021/12/11 19:17:54;;;;;;;27.87;9.93;;;;;4.10;101568.00;;;;10456767;28;20579;-79
2021/12/11 19:22:57;;;;;;;23.67;9.73;;;;;4.10;101578.00;;;;10502517;28;20243;-79
2021/12/11 19:28:04;;;;;;;31.47;12.63;;;;;4.00;101569.00;;;;10480230;28;20238;-80
2021/12/11 19:33:12;;;;;;;34.83;17.73;;;;;4.00;101561.00;;;;10491143;28;20220;-78
2021/12/11 19:38:14;;;;;;;44.73;23.67;;;;;3.90;101570.00;;;;10489070;28;20205;-79
2021/12/11 19:43:16;;;;;;;48.47;30.17;;;;;4.00;101562.00;;;;10472196;28;20300;-80
2021/12/11 19:48:20;;;;;;;50.67;30.67;;;;;4.00;101569.00;;;;10494262;28;20189;-80
2021/12/11 19:53:23;;;;;;;45.60;21.37;;;;;4.00;101573.00;;;;10482554;28;20592;-80
2021/12/11 19:58:32;;;;;;;29.70;14.07;;;;;3.90;101578.00;;;;10485540;28;20219;-80
2021/12/11 20:03:37;;;;;;;23.33;10.13;;;;;3.90;101567.00;;;;10488181;28;20220;-79
2021/12/11 20:08:48;;;;;;;18.90;9.23;;;;;3.90;101567.00;;;;10504533;28;20655;-80
2021/12/11 20:13:50;;;;;;;20.50;8.97;;;;;4.00;101579.00;;;;10489780;28;20189;-79
2021/12/11 20:18:58;;;;;;;17.47;9.00;;;;;4.10;101578.00;;;;10495375;28;20205;-80
2021/12/11 20:24:02;;;;;;;22.00;10.43;;;;;4.20;101580.00;;;;10466833;28;20197;-80
2021/12/11 20:29:19;;;;;;;26.57;9.83;;;;;4.30;101569.00;;;;10492728;28;20228;-81
2021/12/11 20:34:22;;;;;;;32.67;10.03;;;;;4.30;101571.00;;;;10454724;28;20636;-80
2021/12/11 20:39:29;;;;;;;25.60;9.30;;;;;4.40;101582.00;;;;10474830;28;20209;-80
2021/12/11 20:44:38;;;;;;;26.07;9.50;;;;;4.40;101590.00;;;;10482629;28;20238;-82
2021/12/11 20:49:42;;;;;;;24.30;9.97;;;;;4.40;101600.00;;;;10490163;28;20190;-81
2021/12/11 20:54:50;;;;;;;25.40;8.07;;;;;4.40;101583.00;;;;10488466;28;20201;-81
2021/12/11 20:59:52;;;;;;;25.43;9.60;;;;;4.40;101577.00;;;;10499442;28;20296;-81
2021/12/11 21:04:59;;;;;;;21.33;8.37;;;;;4.40;101580.00;;;;10495377;28;20283;-81
2021/12/11 21:10:19;;;;;;;20.20;8.33;;;;;4.50;101574.00;;;;10474154;28;20193;-80
2021/12/11 21:15:30;;;;;;;19.73;8.43;;;;;4.60;101567.00;;;;10476785;28;20189;-81
2021/12/11 21:20:41;;;;;;;20.40;7.10;;;;;4.70;101564.00;;;;10539055;28;20216;-81
2021/12/11 21:25:47;;;;;;;16.07;6.60;;;;;4.70;101575.00;;;;10461368;28;20197;-81
2021/12/11 21:31:03;;;;;;;24.13;7.63;;;;;4.80;101579.00;;;;10480900;28;20238;-81
2021/12/11 21:36:09;;;;;;;18.33;6.93;;;;;4.90;101584.00;;;;10475898;28;20636;-80
2021/12/11 21:41:33;;;;;;;20.07;6.00;;;;;4.90;101579.00;;;;10491212;28;20209;-80
2021/12/11 21:46:39;;;;;;;12.30;5.30;;;;;4.90;101574.00;;;;10455939;28;20197;-80
2021/12/11 21:51:45;;;;;;;24.20;6.23;;;;;4.90;101580.00;;;;10483845;28;20188;-79
2021/12/11 21:56:51;;;;;;;15.80;6.00;;;;;4.90;101580.00;;;;10482341;28;20283;-80
2021/12/11 22:01:57;;;;;;;18.57;6.23;;;;;4.90;101588.00;;;;10486628;28;20220;-79
2021/12/11 22:07:15;;;;;;;20.17;6.73;;;;;5.00;101581.00;;;;10492680;28;20206;-78
2021/12/11 22:12:22;;;;;;;18.33;6.63;;;;;5.00;101581.00;;;;10481355;28;20207;-79
2021/12/11 22:17:27;;;;;;;16.93;5.60;;;;;5.00;101578.00;;;;10489760;28;20208;-79
2021/12/11 22:22:39;;;;;;;21.17;6.27;;;;;5.10;101581.00;;;;10488787;28;20196;-80
2021/12/11 22:27:41;;;;;;;23.30;6.33;;;;;5.10;101587.00;;;;10504723;28;20689;-79
2021/12/11 22:32:46;;;;;;;21.07;5.83;;;;;5.10;101580.00;;;;10488663;28;20209;-79
2021/12/11 22:37:50;;;;;;;16.53;7.23;;;;;5.10;101586.00;;;;10484138;28;20205;-79
2021/12/11 22:42:56;;;;;;;18.27;6.70;;;;;5.10;101575.00;;;;10496100;28;20281;-79
2021/12/11 22:47:58;;;;;;;20.33;7.27;;;;;5.00;101569.00;;;;10488391;28;20197;-80
2021/12/11 22:53:07;;;;;;;18.43;6.33;;;;;4.90;101585.00;;;;10455311;28;20221;-80
2021/12/11 22:58:16;;;;;;;18.83;6.63;;;;;4.90;101597.00;;;;10493366;28;20266;-80
2021/12/11 23:03:26;;;;;;;13.63;5.87;;;;;4.90;101600.00;;;;10515173;28;20274;-80
2021/12/11 23:08:35;;;;;;;15.67;6.53;;;;;5.00;101598.00;;;;10499361;28;20861;-79
2021/12/11 23:13:47;;;;;;;19.83;6.83;;;;;5.00;101600.00;;;;10493204;28;20201;-80
2021/12/11 23:19:12;;;;;;;17.77;6.57;;;;;5.10;101601.00;;;;10486218;28;20217;-80
2021/12/11 23:24:37;;;;;;;19.67;6.13;;;;;5.10;101602.00;;;;10471115;28;20192;-79
2021/12/11 23:30:05;;;;;;;21.80;6.63;;;;;5.10;101607.00;;;;10489344;28;20192;-79
2021/12/11 23:35:22;;;;;;;24.37;6.23;;;;;5.10;101603.00;;;;10407292;28;20626;-79
2021/12/11 23:40:34;;;;;;;18.03;7.37;;;;;5.10;101593.00;;;;10432930;28;20217;-79
2021/12/11 23:45:43;;;;;;;17.90;6.80;;;;;5.10;101596.00;;;;10503378;28;20201;-79
2021/12/11 23:51:12;;;;;;;23.27;7.93;;;;;5.20;101595.00;;;;10503599;28;20219;-78
2021/12/11 23:56:18;;;;;;;24.23;7.70;;;;;5.20;101580.00;;;;10466888;28;20242;-80
